Airfield :
LOGIN :

Register | Disclaimer

   EN    FR    IT 

 










Legend :    VFR   Marginal VFR   IFR   Intensive IFR   Very Intensive IFR
Visi :
Ceiling :
>= 8 km
>= 3000ft
5 to 8 km
1000 to 3000 ft
1500m to 5 km
500 to 1000 ft
800 to 1500m
200 to 500 ft
< 800m
< 200 ft
Symbols :   Thunderstorms  Fog  Heavy snow  Heavy precipitations  Wind > 20 kt
SIGMETs :     Misc.  Thunderstorms  Icing  Turbulence  Mountain Waves  Volcanic Ashes







- Airport Elevation : 6 ft
- IATA code : PSA


LIRP - Galileo Galilei Pisa

CURRENT METAR :
  • 231345Z 16010KT 9999 SCT020 BKN050 18/12 Q1017 NOSIG

EXPIRED METARs :
  • 231315Z 16009KT 9999 SCT020 BKN050 18/11 Q1017 NOSIG
  • 231245Z 15009KT 9999 SCT020 SCT050 17/11 Q1017 NOSIG
  • 231215Z 12007KT 9999 SCT015 BKN050 17/11 Q1017 NOSIG
  • 231145Z 13006KT 9999 SCT015 BKN050 17/11 Q1017 NOSIG
  • 231115Z 13007KT 9999 SCT015 BKN050 17/12 Q1017 NOSIG

TAF TAF LIRP
Valid from the 23 at 12:00 until the 24 at 12:00 UTC


231100Z 2312/2412 13010KT 9999 BKN020
TEMPO 2313/2318 5000 RA BR
PROB40
TEMPO 2313/2317 18015KT 3000 TSRA FEW015CB BKN025
BECMG 2319/2321 09006KT 7000 FEW025 BKN050
TEMPO 2323/2406 3000 BR
BECMG 2407/2409 10010KT 9999 SCT050
No reported NOTAMs for that airfield.



MET'MAP, your aeronautical weather chart ! - Copyright ORBIFLY December 2007 - Disclaimer

ORBIFLY MET'MAP TEAM :

Programming & Development : Alexandra Zaïnal
Concept & Development : Baudouin d'Aumeries
Co-Development & Prog : Marc-Olivier Méhu
Technical & hardware support : Manuel Goepfert

Contact : metmap@orbifly.com




SOURCES & CREDITS :

   NOAA